Time;durP1;ratioP1;P1;durP2;ratioP2;P2;SDS_P1;SDS_P2;PMS_P1;PMS_P2;Temp;Humidity;BMP_temperature;BMP_pressure;BME280_temperature;BME280_humidity;BME280_pressure;Samples;Min_cycle;Max_cycle;Signal;HPM_P1;HPM_P2
2023/04/12 03:02:22;;;;;;;1.15;0.10;;;9.20;93.70;;;;;;5381271;23;91058;-72
2023/04/12 03:04:52;;;;;;;2.65;0.22;;;9.20;94.20;;;;;;4902124;28;87555;-72
2023/04/12 03:07:18;;;;;;;1.65;0.13;;;9.20;95.00;;;;;;4905514;28;89275;-72
2023/04/12 03:09:45;;;;;;;0.70;0.17;;;9.20;94.40;;;;;;4901847;28;87176;-72
2023/04/12 03:12:11;;;;;;;1.75;0.22;;;9.20;94.50;;;;;;4917386;28;89222;-73
2023/04/12 03:14:36;;;;;;;1.77;0.25;;;9.20;94.20;;;;;;4913194;28;88345;-73
2023/04/12 03:17:02;;;;;;;0.77;0.10;;;9.20;94.40;;;;;;4909941;28;87582;-73
2023/04/12 03:19:29;;;;;;;1.60;0.10;;;9.20;94.50;;;;;;4903434;28;87298;-73
2023/04/12 03:21:54;;;;;;;0.88;0.10;;;9.20;94.20;;;;;;4909298;28;87456;-72
2023/04/12 03:24:20;;;;;;;2.05;0.25;;;9.20;94.40;;;;;;4907405;28;88320;-73
2023/04/12 03:26:46;;;;;;;1.33;0.20;;;9.10;94.70;;;;;;4904428;28;87588;-72
2023/04/12 03:29:11;;;;;;;1.15;0.10;;;9.00;94.60;;;;;;4921201;28;86762;-72
2023/04/12 03:31:37;;;;;;;2.05;0.20;;;9.00;95.10;;;;;;4902128;28;87115;-72
2023/04/12 03:34:03;;;;;;;1.50;0.10;;;9.00;94.80;;;;;;4901691;28;88028;-72
2023/04/12 03:36:29;;;;;;;2.15;0.10;;;9.00;95.30;;;;;;4904442;28;88634;-72
2023/04/12 03:38:55;;;;;;;1.48;0.10;;;9.00;95.10;;;;;;4908184;28;87501;-72
2023/04/12 03:41:24;;;;;;;1.05;0.10;;;9.10;96.00;;;;;;4904965;28;88077;-72
2023/04/12 03:43:50;;;;;;;1.20;0.10;;;9.10;95.40;;;;;;4904085;28;89004;-72
2023/04/12 03:46:16;;;;;;;0.70;0.10;;;9.10;95.40;;;;;;4910735;28;87574;-72
2023/04/12 03:48:42;;;;;;;0.77;0.03;;;9.10;95.40;;;;;;4907732;28;87429;-72
2023/04/12 03:51:10;;;;;;;0.95;0.10;;;9.10;94.50;;;;;;4893310;28;88374;-72
2023/04/12 03:53:36;;;;;;;2.58;0.10;;;9.00;95.00;;;;;;4915097;28;86839;-73
2023/04/12 03:56:02;;;;;;;0.90;0.10;;;9.00;94.90;;;;;;4903678;28;87747;-73
2023/04/12 03:58:28;;;;;;;1.10;0.10;;;9.00;95.00;;;;;;4906553;28;87212;-73
2023/04/12 04:00:54;;;;;;;1.67;0.15;;;9.00;95.30;;;;;;4919875;28;89033;-73
2023/04/12 04:03:25;;;;;;;0.82;0.10;;;9.00;94.60;;;;;;4881658;28;88775;-73
2023/04/12 04:05:51;;;;;;;1.65;0.08;;;9.00;94.40;;;;;;4881900;28;88502;-72
2023/04/12 04:08:17;;;;;;;1.35;0.10;;;9.00;94.90;;;;;;4898302;28;87783;-72
2023/04/12 04:10:43;;;;;;;1.00;0.10;;;9.10;94.60;;;;;;4877152;28;88655;-72
2023/04/12 04:13:09;;;;;;;1.40;0.10;;;9.10;94.60;;;;;;4891299;28;87768;-71
2023/04/12 04:15:35;;;;;;;1.15;0.20;;;9.20;94.90;;;;;;4882526;28;87528;-71
2023/04/12 04:18:00;;;;;;;2.15;0.10;;;9.10;95.00;;;;;;4885661;28;86499;-71
2023/04/12 04:20:26;;;;;;;1.40;0.10;;;9.20;94.50;;;;;;4881248;28;88386;-74
2023/04/12 04:22:52;;;;;;;2.47;0.20;;;9.20;94.20;;;;;;4878035;28;87763;-72
2023/04/12 04:25:18;;;;;;;1.83;0.20;;;9.20;94.70;;;;;;4869143;28;88431;-72
2023/04/12 04:27:44;;;;;;;1.90;0.13;;;9.20;94.70;;;;;;4880162;28;87518;-72
2023/04/12 04:30:15;;;;;;;2.58;0.20;;;9.20;94.80;;;;;;4881910;28;88022;-72
2023/04/12 04:32:41;;;;;;;4.38;0.35;;;9.10;94.70;;;;;;4881703;28;87435;-72
2023/04/12 04:35:07;;;;;;;2.65;0.50;;;9.10;94.80;;;;;;4879778;28;87360;-72
2023/04/12 04:37:36;;;;;;;2.92;0.40;;;9.10;95.70;;;;;;4881879;28;87655;-72
2023/04/12 04:40:07;;;;;;;1.23;0.30;;;9.10;95.70;;;;;;4883087;28;88450;-72
2023/04/12 04:42:33;;;;;;;2.35;0.40;;;9.10;95.60;;;;;;4872912;28;87843;-72
2023/04/12 04:45:03;;;;;;;3.20;0.63;;;9.10;95.50;;;;;;4885899;28;87592;-73
2023/04/12 04:47:29;;;;;;;3.28;0.50;;;9.10;95.90;;;;;;4892939;28;87498;-73
2023/04/12 04:49:56;;;;;;;2.80;0.70;;;9.10;95.90;;;;;;4888806;28;88586;-73
2023/04/12 04:52:22;;;;;;;2.63;0.50;;;9.10;95.80;;;;;;4872017;28;88960;-72
2023/04/12 04:54:48;;;;;;;2.22;0.32;;;9.10;95.60;;;;;;4879664;28;87967;-71
2023/04/12 04:57:14;;;;;;;2.40;0.45;;;9.00;96.20;;;;;;4876284;28;88214;-71
2023/04/12 04:59:40;;;;;;;1.95;0.52;;;9.00;96.50;;;;;;4878678;28;88112;-72
2023/04/12 05:02:06;;;;;;;3.25;0.52;;;9.10;95.70;;;;;;4882645;28;87909;-72
2023/04/12 05:04:31;;;;;;;2.65;0.63;;;9.00;96.30;;;;;;4884634;28;87358;-72
2023/04/12 05:06:57;;;;;;;2.85;0.60;;;9.10;96.40;;;;;;4879098;28;86821;-72
2023/04/12 05:09:23;;;;;;;2.22;0.30;;;9.00;96.40;;;;;;4877011;28;87669;-72
2023/04/12 05:11:48;;;;;;;2.10;0.50;;;9.10;96.50;;;;;;4874407;28;87844;-72
2023/04/12 05:14:14;;;;;;;1.92;0.57;;;9.10;96.60;;;;;;4879408;28;88398;-72
2023/04/12 05:16:40;;;;;;;4.25;0.95;;;9.00;97.00;;;;;;4877115;28;87634;-73
2023/04/12 05:19:06;;;;;;;3.53;0.70;;;9.10;97.20;;;;;;4878532;28;87746;-72
2023/04/12 05:21:32;;;;;;;1.08;0.20;;;9.10;96.50;;;;;;4888921;28;87870;-72
2023/04/12 05:23:58;;;;;;;1.50;0.20;;;9.10;95.90;;;;;;4892046;28;87718;-72
2023/04/12 05:26:24;;;;;;;1.80;0.32;;;9.20;95.70;;;;;;4878830;28;87966;-73
2023/04/12 05:28:50;;;;;;;1.65;0.20;;;9.30;95.20;;;;;;4880991;28;89157;-73
2023/04/12 05:31:16;;;;;;;0.98;0.13;;;9.30;95.40;;;;;;4878872;28;87296;-73
2023/04/12 05:33:43;;;;;;;1.40;0.10;;;9.30;94.80;;;;;;4878724;28;89013;-73
2023/04/12 05:36:10;;;;;;;2.80;0.10;;;9.40;94.20;;;;;;4877290;28;88595;-73
2023/04/12 05:38:36;;;;;;;1.48;0.10;;;9.50;94.30;;;;;;4866669;28;88507;-72
2023/04/12 05:41:04;;;;;;;1.20;0.10;;;9.60;94.70;;;;;;4885363;28;88186;-73
2023/04/12 05:43:31;;;;;;;2.20;0.20;;;9.60;94.30;;;;;;4878993;28;87458;-73
2023/04/12 05:45:58;;;;;;;1.20;0.20;;;9.70;93.60;;;;;;4883051;28;87360;-73
2023/04/12 05:48:23;;;;;;;1.10;0.10;;;9.70;93.40;;;;;;4875754;28;88721;-73
2023/04/12 05:50:53;;;;;;;1.52;0.30;;;9.70;94.30;;;;;;4888452;28;88071;-73
2023/04/12 05:53:20;;;;;;;2.08;0.10;;;9.80;93.90;;;;;;4883811;28;87112;-73
2023/04/12 05:55:46;;;;;;;2.90;0.10;;;9.70;93.30;;;;;;4887295;28;86672;-72
2023/04/12 05:58:12;;;;;;;1.27;0.20;;;9.70;93.70;;;;;;4899008;28;88466;-73
2023/04/12 06:00:41;;;;;;;1.13;0.10;;;9.70;93.90;;;;;;4897440;28;88252;-73
2023/04/12 06:03:09;;;;;;;1.90;0.20;;;9.60;94.40;;;;;;4888477;28;88696;-73
2023/04/12 06:05:35;;;;;;;4.15;0.20;;;9.60;94.10;;;;;;4878148;28;87479;-73
2023/04/12 06:08:00;;;;;;;2.10;0.30;;;9.60;94.40;;;;;;4884698;28;87704;-73
2023/04/12 06:10:26;;;;;;;2.58;0.52;;;9.60;94.60;;;;;;4888015;28;88319;-73
2023/04/12 06:12:52;;;;;;;1.95;0.60;;;9.60;94.70;;;;;;4887399;28;88084;-73
2023/04/12 06:15:19;;;;;;;5.03;0.70;;;9.60;95.00;;;;;;4886907;28;87377;-73
2023/04/12 06:17:45;;;;;;;3.03;0.50;;;9.50;94.70;;;;;;4877113;28;88835;-73
2023/04/12 06:20:11;;;;;;;1.52;0.20;;;9.50;95.00;;;;;;4893695;28;88464;-73
2023/04/12 06:22:37;;;;;;;2.17;0.30;;;9.50;94.70;;;;;;4881236;28;87478;-72
2023/04/12 06:25:03;;;;;;;1.70;0.20;;;9.60;94.50;;;;;;4888310;28;87439;-73
2023/04/12 06:27:29;;;;;;;3.95;0.50;;;9.60;94.80;;;;;;4886603;28;89705;-73
2023/04/12 06:29:55;;;;;;;2.05;0.20;;;9.70;94.20;;;;;;4889807;28;88265;-73
2023/04/12 06:32:21;;;;;;;4.40;0.20;;;9.70;93.60;;;;;;4885226;28;87398;-73
2023/04/12 06:34:47;;;;;;;5.28;0.30;;;9.70;93.20;;;;;;4885731;28;87832;-73
2023/04/12 06:37:13;;;;;;;4.97;0.38;;;9.80;93.90;;;;;;4885781;28;87726;-73
2023/04/12 06:39:38;;;;;;;2.67;0.30;;;9.90;93.60;;;;;;4873608;28;88833;-73
2023/04/12 06:42:04;;;;;;;1.38;0.20;;;9.90;94.30;;;;;;4884860;28;87487;-73
2023/04/12 06:44:32;;;;;;;4.20;0.38;;;10.00;93.40;;;;;;4893774;28;87246;-73
2023/04/12 06:46:58;;;;;;;3.38;0.30;;;10.00;93.70;;;;;;4886638;28;88728;-73
2023/04/12 06:49:24;;;;;;;1.48;0.30;;;10.00;93.40;;;;;;4886216;28;87450;-73
2023/04/12 06:51:50;;;;;;;2.65;0.28;;;9.90;92.80;;;;;;4879788;28;89771;-74
2023/04/12 06:54:16;;;;;;;0.70;0.10;;;9.90;93.00;;;;;;4888074;28;87946;-74
2023/04/12 06:56:42;;;;;;;2.55;0.30;;;9.80;93.20;;;;;;4881765;28;87543;-74
2023/04/12 06:59:08;;;;;;;2.55;0.20;;;9.80;93.10;;;;;;4874333;28;88114;-73
2023/04/12 07:01:34;;;;;;;1.95;0.20;;;9.90;92.90;;;;;;4890231;28;87379;-73
2023/04/12 07:03:59;;;;;;;2.00;0.30;;;10.00;93.30;;;;;;4886050;28;88816;-73
2023/04/12 07:06:26;;;;;;;2.28;0.22;;;10.00;93.30;;;;;;4886015;28;87691;-74
2023/04/12 07:08:52;;;;;;;1.02;0.20;;;10.00;92.60;;;;;;4881263;28;87459;-74
2023/04/12 07:11:18;;;;;;;1.05;0.20;;;10.00;92.60;;;;;;4879268;28;87473;-73
2023/04/12 07:13:44;;;;;;;0.95;0.10;;;10.10;92.60;;;;;;4875821;28;87584;-73
2023/04/12 07:16:10;;;;;;;1.10;0.10;;;10.00;91.70;;;;;;4891330;28;89614;-72
2023/04/12 07:18:35;;;;;;;1.67;0.25;;;10.00;92.10;;;;;;4882999;28;89650;-72
2023/04/12 07:21:01;;;;;;;2.95;0.30;;;10.00;92.40;;;;;;4886386;28;87461;-73
2023/04/12 07:23:27;;;;;;;0.88;0.20;;;10.00;92.90;;;;;;4882868;28;87504;-73
2023/04/12 07:25:52;;;;;;;2.42;0.20;;;10.00;93.20;;;;;;4888132;28;88292;-74
2023/04/12 07:28:19;;;;;;;1.20;0.30;;;10.10;92.30;;;;;;4891259;28;87817;-73
2023/04/12 07:30:45;;;;;;;1.60;0.10;;;10.20;92.00;;;;;;4871076;28;88708;-73
2023/04/12 07:33:11;;;;;;;2.67;0.30;;;10.30;91.60;;;;;;4890965;28;86834;-73
2023/04/12 07:35:36;;;;;;;1.83;0.30;;;10.40;92.10;;;;;;4879607;28;88161;-73
2023/04/12 07:38:02;;;;;;;1.40;0.15;;;10.50;91.70;;;;;;4880229;28;87942;-72
2023/04/12 07:40:28;;;;;;;2.10;0.28;;;10.60;91.20;;;;;;4884205;28;88149;-73
2023/04/12 07:42:54;;;;;;;4.28;0.35;;;10.60;91.10;;;;;;4882126;28;87688;-73
2023/04/12 07:45:20;;;;;;;4.18;0.60;;;10.60;91.30;;;;;;4881933;28;88228;-73
2023/04/12 07:47:46;;;;;;;1.77;0.40;;;10.70;91.70;;;;;;4872295;28;87328;-74
2023/04/12 07:50:12;;;;;;;1.92;0.30;;;10.80;91.10;;;;;;4881881;28;87390;-74
2023/04/12 07:52:38;;;;;;;1.00;0.20;;;10.90;91.70;;;;;;4882691;28;87091;-73
2023/04/12 07:55:04;;;;;;;2.22;0.40;;;11.10;91.00;;;;;;4881946;28;87756;-73
2023/04/12 07:57:30;;;;;;;1.40;0.20;;;11.30;90.60;;;;;;4881633;28;87838;-73
2023/04/12 07:59:56;;;;;;;2.25;0.30;;;11.40;90.70;;;;;;4883442;28;87615;-73
2023/04/12 08:02:25;;;;;;;1.52;0.20;;;11.50;90.20;;;;;;4878088;28;89675;-73
2023/04/12 08:04:51;;;;;;;1.10;0.20;;;11.50;89.20;;;;;;4883359;28;89159;-73
2023/04/12 08:07:18;;;;;;;1.40;0.30;;;11.50;89.50;;;;;;4881707;28;88786;-73
2023/04/12 08:09:43;;;;;;;0.90;0.20;;;11.80;90.20;;;;;;4881921;28;87297;-73
2023/04/12 08:12:10;;;;;;;2.08;0.17;;;13.00;85.20;;;;;;4892004;28;87300;-73
2023/04/12 08:14:36;;;;;;;1.55;0.20;;;15.10;78.00;;;;;;4882097;28;88599;-74
2023/04/12 08:17:01;;;;;;;1.50;0.30;;;17.10;70.60;;;;;;4882073;28;88168;-74
2023/04/12 08:19:27;;;;;;;1.77;0.30;;;17.50;67.70;;;;;;4880830;28;87530;-74
2023/04/12 08:21:53;;;;;;;1.10;0.20;;;18.70;63.00;;;;;;4885959;28;86936;-74
2023/04/12 08:24:19;;;;;;;1.33;0.20;;;19.10;60.00;;;;;;4880197;28;87375;-74
2023/04/12 08:26:45;;;;;;;0.95;0.30;;;19.10;60.20;;;;;;4881671;28;87835;-74
2023/04/12 08:29:11;;;;;;;0.82;0.20;;;19.10;58.40;;;;;;4881273;28;88386;-74
2023/04/12 08:31:37;;;;;;;1.73;0.50;;;18.70;60.00;;;;;;4881278;28;87472;-74
2023/04/12 08:34:02;;;;;;;1.80;0.40;;;18.30;62.10;;;;;;4880727;28;87694;-74
2023/04/12 08:36:28;;;;;;;1.17;0.60;;;18.50;61.10;;;;;;4881439;28;87936;-74
2023/04/12 08:39:01;;;;;;;3.80;0.50;;;19.30;60.20;;;;;;4877657;28;87444;-75
2023/04/12 08:41:27;;;;;;;1.15;0.40;;;21.10;58.60;;;;;;4889691;28;87093;-75
2023/04/12 08:43:56;;;;;;;1.42;0.43;;;22.40;52.80;;;;;;4881663;28;88223;-75
2023/04/12 08:46:22;;;;;;;1.45;0.20;;;22.00;53.50;;;;;;4882079;28;88873;-75
2023/04/12 08:48:52;;;;;;;1.30;0.43;;;21.10;53.70;;;;;;4881910;28;87527;-75
2023/04/12 08:51:20;;;;;;;1.70;0.20;;;20.60;56.40;;;;;;4881712;28;87351;-75
2023/04/12 08:53:46;;;;;;;3.08;0.55;;;21.60;53.20;;;;;;4880888;28;89586;-74
2023/04/12 08:56:13;;;;;;;1.95;0.50;;;21.40;53.80;;;;;;4880414;28;88925;-74
2023/04/12 08:58:41;;;;;;;1.05;0.63;;;21.70;53.40;;;;;;4882041;28;87116;-75
2023/04/12 09:01:12;;;;;;;1.08;0.43;;;21.90;52.50;;;;;;4880677;28;87029;-75
2023/04/12 09:03:38;;;;;;;1.30;0.30;;;22.60;51.10;;;;;;4881689;28;88308;-75
2023/04/12 09:06:05;;;;;;;1.42;0.40;;;23.90;49.60;;;;;;4880225;28;88150;-75
2023/04/12 09:08:30;;;;;;;1.60;0.80;;;25.20;46.80;;;;;;4881407;28;87464;-76
2023/04/12 09:10:57;;;;;;;2.30;0.60;;;26.00;45.30;;;;;;4882009;28;86804;-76
2023/04/12 09:13:34;;;;;;;2.55;0.38;;;26.20;43.80;;;;;;4874947;28;87663;-75
2023/04/12 09:16:00;;;;;;;1.38;0.93;;;25.70;44.80;;;;;;4880651;28;87827;-75
2023/04/12 09:18:28;;;;;;;2.30;0.63;;;25.70;45.20;;;;;;4881213;28;87989;-75
2023/04/12 09:21:08;;;;;;;2.10;0.57;;;26.40;43.00;;;;;;4880529;28;87535;-76
2023/04/12 09:23:36;;;;;;;2.72;0.65;;;26.00;44.00;;;;;;4881040;28;88119;-76
2023/04/12 09:26:03;;;;;;;1.42;0.63;;;27.00;43.50;;;;;;4880871;28;88006;-76
2023/04/12 09:28:29;;;;;;;1.70;0.55;;;27.80;41.70;;;;;;4880840;28;87689;-76
2023/04/12 09:30:57;;;;;;;2.58;0.80;;;27.90;41.60;;;;;;4881030;28;87369;-76
2023/04/12 09:33:37;;;;;;;1.58;0.30;;;26.70;43.60;;;;;;4880865;28;88477;-76
2023/04/12 09:36:04;;;;;;;1.67;0.30;;;25.40;44.00;;;;;;4881712;28;87169;-76
2023/04/12 09:38:31;;;;;;;1.02;0.30;;;24.40;45.90;;;;;;4874320;28;87421;-76
2023/04/12 09:41:13;;;;;;;2.00;0.65;;;23.60;47.00;;;;;;4881640;28;87487;-75
2023/04/12 09:43:39;;;;;;;2.00;0.90;;;23.40;47.10;;;;;;4880100;28;89255;-76
2023/04/12 09:46:13;;;;;;;1.85;0.10;;;23.50;47.10;;;;;;4875521;28;88314;-76
2023/04/12 09:48:40;;;;;;;1.02;0.13;;;23.50;46.70;;;;;;4878485;28;87076;-75
2023/04/12 09:51:06;;;;;;;1.38;0.20;;;22.80;48.60;;;;;;4881347;28;87373;-75
2023/04/12 09:53:35;;;;;;;1.70;0.20;;;22.10;50.50;;;;;;4880828;28;87866;-75
2023/04/12 09:56:02;;;;;;;1.60;0.20;;;21.70;50.50;;;;;;4880326;28;88006;-75
2023/04/12 09:58:31;;;;;;;1.15;0.50;;;21.30;52.10;;;;;;4881051;28;87517;-75
2023/04/12 10:01:00;;;;;;;0.93;0.45;;;21.30;52.40;;;;;;4881318;28;86692;-75
2023/04/12 10:03:26;;;;;;;0.52;0.15;;;22.10;52.00;;;;;;4871612;28;88613;-75
2023/04/12 10:05:54;;;;;;;3.58;0.30;;;22.50;50.50;;;;;;4877827;28;88060;-75
2023/04/12 10:08:21;;;;;;;0.85;0.30;;;22.70;51.80;;;;;;4880036;28;88270;-75
2023/04/12 10:10:47;;;;;;;1.10;0.50;;;22.70;51.90;;;;;;4880847;28;88505;-75
2023/04/12 10:13:14;;;;;;;1.13;0.20;;;23.00;50.30;;;;;;4879003;28;87697;-76
2023/04/12 10:15:41;;;;;;;1.80;0.32;;;23.60;51.90;;;;;;4880321;28;87741;-75
2023/04/12 10:18:10;;;;;;;1.15;0.30;;;23.80;51.90;;;;;;4880431;28;87753;-75
2023/04/12 10:20:38;;;;;;;3.25;0.28;;;23.80;50.30;;;;;;4875089;28;87433;-75
2023/04/12 10:23:05;;;;;;;1.42;0.20;;;24.20;50.20;;;;;;4879683;28;88182;-75
2023/04/12 10:25:32;;;;;;;1.10;0.45;;;24.30;49.00;;;;;;4877840;28;86960;-76
2023/04/12 10:28:17;;;;;;;1.33;0.22;;;24.20;49.20;;;;;;4881848;28;87887;-75
2023/04/12 10:30:43;;;;;;;0.73;0.20;;;24.00;47.60;;;;;;4879739;28;87403;-75
2023/04/12 10:33:09;;;;;;;1.42;0.40;;;23.80;48.00;;;;;;4881121;28;89681;-76
2023/04/12 10:35:58;;;;;;;1.08;0.32;;;23.90;49.10;;;;;;4888099;28;88196;-75
2023/04/12 10:38:25;;;;;;;1.02;0.20;;;23.80;48.20;;;;;;4872115;28;87120;-75
2023/04/12 10:41:11;;;;;;;1.13;0.20;;;23.90;48.60;;;;;;4880084;28;87583;-75
2023/04/12 10:43:37;;;;;;;1.70;0.30;;;23.70;48.80;;;;;;4879596;28;88106;-75
2023/04/12 10:46:05;;;;;;;0.43;0.20;;;23.90;48.60;;;;;;4889042;28;88389;-75
2023/04/12 10:48:33;;;;;;;0.75;0.20;;;23.80;48.20;;;;;;4875533;28;88427;-75
2023/04/12 10:51:26;;;;;;;1.08;0.25;;;23.60;47.50;;;;;;4887928;28;86683;-75
2023/04/12 10:53:53;;;;;;;0.88;0.25;;;23.10;46.70;;;;;;4879568;28;87931;-75
2023/04/12 10:56:30;;;;;;;2.50;0.20;;;22.90;50.10;;;;;;4881648;28;87473;-75
2023/04/12 10:59:01;;;;;;;1.17;0.13;;;22.80;48.50;;;;;;4855162;28;88995;-75
2023/04/12 11:01:27;;;;;;;3.80;0.35;;;22.70;48.50;;;;;;4869640;28;88166;-75
2023/04/12 11:04:16;;;;;;;0.52;0.10;;;22.80;49.90;;;;;;4876989;28;89739;-75
2023/04/12 11:07:05;;;;;;;0.52;0.10;;;22.80;46.70;;;;;;4896222;28;88476;-75
2023/04/12 11:09:40;;;;;;;0.68;0.20;;;22.50;47.20;;;;;;4883600;28;87353;-75
2023/04/12 11:12:06;;;;;;;2.90;0.40;;;22.20;47.90;;;;;;4872496;28;87337;-75
2023/04/12 11:14:42;;;;;;;2.28;0.43;;;22.00;47.50;;;;;;4882997;28;87789;-75
2023/04/12 11:17:08;;;;;;;2.28;0.35;;;21.80;50.70;;;;;;4877853;28;87151;-75
2023/04/12 11:19:36;;;;;;;3.67;0.30;;;21.50;49.30;;;;;;4881632;28;87974;-75
2023/04/12 11:22:10;;;;;;;1.63;0.25;;;21.30;50.10;;;;;;4880321;28;87574;-74
2023/04/12 11:24:56;;;;;;;3.05;0.40;;;21.10;51.40;;;;;;4880248;28;88672;-74
2023/04/12 11:27:23;;;;;;;2.70;0.30;;;21.10;51.30;;;;;;4879441;28;91861;-74
2023/04/12 11:29:51;;;;;;;4.75;0.20;;;20.90;52.10;;;;;;4879888;28;87237;-74
2023/04/12 11:32:17;;;;;;;2.28;0.30;;;20.80;53.70;;;;;;4882071;28;87249;-75
2023/04/12 11:34:46;;;;;;;3.53;0.20;;;20.80;52.70;;;;;;4880859;28;87604;-74
2023/04/12 11:37:12;;;;;;;4.28;0.22;;;20.80;53.30;;;;;;4880525;28;88475;-74
2023/04/12 11:39:42;;;;;;;1.02;0.22;;;21.10;51.60;;;;;;4879112;28;87541;-74
2023/04/12 11:42:16;;;;;;;1.42;0.10;;;21.10;51.70;;;;;;4880322;28;86801;-75
2023/04/12 11:44:47;;;;;;;1.02;0.20;;;21.00;50.00;;;;;;4878532;28;87963;-75
2023/04/12 11:47:21;;;;;;;0.80;0.13;;;21.10;49.40;;;;;;4878814;28;88274;-75
2023/04/12 11:49:49;;;;;;;1.00;0.40;;;21.10;49.30;;;;;;4869489;28;89782;-74
2023/04/12 11:52:16;;;;;;;2.25;0.30;;;21.00;50.30;;;;;;4875073;28;87897;-75
2023/04/12 11:54:49;;;;;;;1.95;0.25;;;21.10;49.20;;;;;;4881041;28;89416;-75
2023/04/12 11:57:17;;;;;;;1.88;0.32;;;21.10;48.70;;;;;;4879775;28;87552;-75
2023/04/12 11:59:47;;;;;;;2.13;0.20;;;20.90;48.70;;;;;;4870134;28;89020;-74
2023/04/12 12:02:14;;;;;;;3.25;0.60;;;20.50;49.60;;;;;;4870903;28;89212;-75
2023/04/12 12:04:43;;;;;;;2.45;0.30;;;20.50;50.40;;;;;;4887741;28;87698;-74
2023/04/12 12:07:11;;;;;;;3.05;0.70;;;20.50;50.50;;;;;;4879859;28;88357;-75
2023/04/12 12:09:38;;;;;;;2.60;0.45;;;20.40;50.80;;;;;;4874994;28;87098;-74
2023/04/12 12:12:05;;;;;;;4.78;0.50;;;20.10;53.40;;;;;;4874619;28;87500;-74
2023/04/12 12:14:34;;;;;;;3.65;0.43;;;19.70;54.40;;;;;;4886880;28;89626;-74
2023/04/12 12:17:01;;;;;;;2.97;0.57;;;19.10;55.70;;;;;;4887533;28;88136;-74
2023/04/12 12:19:36;;;;;;;2.38;0.63;;;18.80;57.70;;;;;;4877852;28;87298;-74
2023/04/12 12:22:21;;;;;;;2.97;0.65;;;18.70;58.10;;;;;;4877932;28;87246;-74
2023/04/12 12:24:50;;;;;;;3.53;0.90;;;18.40;60.00;;;;;;4876696;28;88181;-74
2023/04/12 12:27:24;;;;;;;2.80;0.60;;;18.30;60.90;;;;;;4870665;28;87696;-74
2023/04/12 12:29:52;;;;;;;4.20;0.70;;;18.40;60.10;;;;;;4880118;28;87824;-74
2023/04/12 12:32:19;;;;;;;2.03;0.40;;;18.80;59.60;;;;;;4881023;28;87190;-74
2023/04/12 12:34:55;;;;;;;2.47;0.63;;;18.90;58.70;;;;;;4878285;28;87442;-74
2023/04/12 12:37:25;;;;;;;4.65;0.50;;;18.90;59.10;;;;;;4870067;28;88000;-74
2023/04/12 12:40:06;;;;;;;2.53;0.25;;;19.20;59.20;;;;;;4872579;28;88651;-74
2023/04/12 12:42:33;;;;;;;2.25;0.43;;;19.40;57.90;;;;;;4873117;28;87493;-74
2023/04/12 12:44:59;;;;;;;4.78;0.73;;;19.50;55.50;;;;;;4879851;28;88292;-74
2023/04/12 12:47:25;;;;;;;3.53;0.60;;;19.50;55.40;;;;;;4886119;28;88381;-74
2023/04/12 12:49:50;;;;;;;2.08;0.43;;;19.30;55.70;;;;;;4875958;28;89648;-74
2023/04/12 12:52:16;;;;;;;2.75;0.52;;;19.30;57.60;;;;;;4890391;28;87314;-74
2023/04/12 12:54:42;;;;;;;5.22;0.65;;;19.70;55.90;;;;;;4883996;28;87854;-74
2023/04/12 12:57:07;;;;;;;3.05;0.50;;;20.10;55.00;;;;;;4890063;28;88390;-74
2023/04/12 12:59:33;;;;;;;5.75;0.63;;;20.50;56.90;;;;;;4887317;28;87395;-74
2023/04/12 13:01:59;;;;;;;4.97;0.68;;;20.80;52.30;;;;;;4884485;28;87480;-74
2023/04/12 13:04:25;;;;;;;2.53;0.68;;;20.50;53.60;;;;;;4880717;28;90223;-74
2023/04/12 13:06:51;;;;;;;4.10;0.77;;;20.40;54.70;;;;;;4879102;28;90531;-75
2023/04/12 13:09:17;;;;;;;3.10;0.75;;;20.30;56.20;;;;;;4880363;28;87570;-74
2023/04/12 13:11:42;;;;;;;4.93;0.80;;;20.20;56.70;;;;;;4879650;28;87269;-74
2023/04/12 13:14:08;;;;;;;2.42;0.63;;;20.10;56.90;;;;;;4881127;28;88111;-74
2023/04/12 13:16:34;;;;;;;2.10;0.45;;;20.00;56.10;;;;;;4879791;28;88902;-74
2023/04/12 13:19:00;;;;;;;4.18;0.43;;;19.80;55.60;;;;;;4881327;28;87007;-74
2023/04/12 13:21:26;;;;;;;2.30;0.60;;;19.60;57.70;;;;;;4879475;28;86426;-74
2023/04/12 13:23:52;;;;;;;2.47;0.43;;;19.50;56.80;;;;;;4881466;28;88188;-74
2023/04/12 13:26:17;;;;;;;2.20;0.40;;;19.20;55.90;;;;;;4881401;28;88631;-74
2023/04/12 13:28:43;;;;;;;2.47;0.30;;;18.80;58.60;;;;;;4870445;28;88313;-73
2023/04/12 13:31:09;;;;;;;1.75;0.32;;;18.50;58.10;;;;;;4881556;28;87232;-74
2023/04/12 13:33:34;;;;;;;2.08;0.47;;;18.30;60.60;;;;;;4880038;28;89178;-74
2023/04/12 13:36:00;;;;;;;2.50;0.30;;;18.00;60.10;;;;;;4877715;28;87753;-74
2023/04/12 13:38:26;;;;;;;2.00;0.50;;;17.80;62.30;;;;;;4873048;28;87131;-74
2023/04/12 13:40:51;;;;;;;4.97;0.43;;;17.60;63.60;;;;;;4878972;28;87170;-75
2023/04/12 13:43:17;;;;;;;2.78;0.47;;;17.40;65.30;;;;;;4881194;28;88109;-74
2023/04/12 13:45:43;;;;;;;3.10;0.50;;;17.30;63.70;;;;;;4878411;28;86804;-74
2023/04/12 13:48:09;;;;;;;4.10;0.40;;;17.40;64.20;;;;;;4881326;28;87321;-74
2023/04/12 13:50:35;;;;;;;2.33;0.45;;;17.60;66.00;;;;;;4885826;28;87472;-74
2023/04/12 13:53:00;;;;;;;1.55;0.30;;;17.80;64.50;;;;;;4880078;28;89116;-74
2023/04/12 13:55:26;;;;;;;2.97;0.50;;;17.80;63.50;;;;;;4880563;28;88406;-74
2023/04/12 13:57:52;;;;;;;1.88;0.40;;;17.80;63.90;;;;;;4880990;28;87450;-74
2023/04/12 14:00:18;;;;;;;2.38;0.68;;;17.80;65.00;;;;;;4885634;28;87608;-74
2023/04/12 14:02:44;;;;;;;5.93;0.80;;;17.80;63.20;;;;;;4877291;28;88356;-74
2023/04/12 14:05:10;;;;;;;2.90;0.45;;;17.80;62.30;;;;;;4884273;28;87776;-74
2023/04/12 14:07:36;;;;;;;2.28;0.35;;;17.70;62.60;;;;;;4889726;28;87173;-74
2023/04/12 14:10:02;;;;;;;4.57;0.45;;;17.70;61.70;;;;;;4880677;28;87097;-74
2023/04/12 14:12:27;;;;;;;2.35;0.50;;;17.70;63.20;;;;;;4879954;28;88818;-74
2023/04/12 14:14:53;;;;;;;3.95;0.68;;;17.70;63.20;;;;;;4880728;28;87904;-74
2023/04/12 14:17:19;;;;;;;3.58;0.63;;;17.70;63.60;;;;;;4881550;28;89846;-74
2023/04/12 14:19:44;;;;;;;5.60;0.70;;;17.60;63.00;;;;;;4873664;28;87209;-74
2023/04/12 14:22:10;;;;;;;4.68;0.63;;;17.70;63.30;;;;;;4884377;28;88261;-74
2023/04/12 14:24:36;;;;;;;4.75;1.00;;;17.70;63.30;;;;;;4883537;28;88001;-74
2023/04/12 14:27:03;;;;;;;4.40;0.45;;;17.90;63.20;;;;;;4883786;28;87457;-74
2023/04/12 14:29:28;;;;;;;3.38;0.68;;;18.00;61.50;;;;;;4884375;28;87442;-73
2023/04/12 14:31:54;;;;;;;12.57;1.30;;;18.00;61.70;;;;;;4883967;28;87705;-73
2023/04/12 14:34:20;;;;;;;7.65;1.08;;;18.10;61.80;;;;;;4883891;28;87158;-74
2023/04/12 14:36:45;;;;;;;4.05;0.70;;;18.10;60.60;;;;;;4867777;28;87309;-74
2023/04/12 14:39:11;;;;;;;5.68;0.90;;;18.30;61.90;;;;;;4884032;28;86944;-74
2023/04/12 14:41:37;;;;;;;4.35;0.70;;;18.30;60.10;;;;;;4875495;28;89523;-74
2023/04/12 14:44:03;;;;;;;3.80;0.90;;;18.00;60.50;;;;;;4883338;28;88495;-74
2023/04/12 14:46:31;;;;;;;5.00;0.70;;;18.00;61.70;;;;;;4880425;28;87494;-73
2023/04/12 14:48:59;;;;;;;4.85;0.73;;;17.90;61.60;;;;;;4886172;28;87370;-74
2023/04/12 14:51:26;;;;;;;4.72;0.50;;;17.80;60.40;;;;;;4889059;28;88123;-73
2023/04/12 14:53:52;;;;;;;4.70;0.95;;;17.50;61.90;;;;;;4886360;28;87418;-73
2023/04/12 14:56:19;;;;;;;2.80;0.60;;;17.60;62.40;;;;;;4898903;28;87674;-74
2023/04/12 14:58:45;;;;;;;4.32;0.77;;;17.70;63.50;;;;;;4879920;28;86949;-74
2023/04/12 15:01:11;;;;;;;5.18;0.90;;;18.00;62.10;;;;;;4869899;28;88234;-73
2023/04/12 15:03:40;;;;;;;5.78;0.80;;;18.00;62.60;;;;;;4874550;28;88169;-74
2023/04/12 15:06:07;;;;;;;3.22;1.02;;;17.80;63.80;;;;;;4875659;28;88500;-74
2023/04/12 15:08:40;;;;;;;3.40;0.88;;;17.80;63.80;;;;;;4873310;28;88059;-74
2023/04/12 15:11:09;;;;;;;3.60;0.98;;;17.60;63.20;;;;;;4876076;28;90699;-74
2023/04/12 15:13:40;;;;;;;4.13;0.88;;;17.40;65.40;;;;;;4874017;28;88208;-73
2023/04/12 15:16:07;;;;;;;5.13;1.15;;;17.20;65.60;;;;;;4871443;28;88133;-73
2023/04/12 15:18:36;;;;;;;3.35;0.90;;;17.10;66.80;;;;;;4877733;28;88129;-73
2023/04/12 15:21:07;;;;;;;4.82;1.13;;;17.10;66.20;;;;;;4887213;28;88512;-74
2023/04/12 15:23:33;;;;;;;2.90;0.60;;;17.10;65.60;;;;;;4882767;28;87724;-73
2023/04/12 15:26:00;;;;;;;5.45;0.93;;;17.00;65.30;;;;;;4882796;28;87857;-73
2023/04/12 15:28:26;;;;;;;2.78;0.55;;;16.90;66.20;;;;;;4876345;28;87364;-73
2023/04/12 15:30:54;;;;;;;2.80;0.73;;;16.60;65.80;;;;;;4879126;28;88632;-73
2023/04/12 15:33:20;;;;;;;4.32;0.95;;;16.50;66.50;;;;;;4874524;28;88791;-73
2023/04/12 15:35:48;;;;;;;2.30;0.50;;;16.40;67.40;;;;;;4864242;28;87283;-74
2023/04/12 15:38:14;;;;;;;3.08;0.57;;;16.40;67.70;;;;;;4879884;28;87497;-73
2023/04/12 15:40:40;;;;;;;3.95;0.65;;;16.40;66.90;;;;;;4886062;28;88161;-73
2023/04/12 15:43:06;;;;;;;5.05;0.88;;;16.40;67.20;;;;;;4876799;28;87913;-73
2023/04/12 15:45:32;;;;;;;4.70;0.60;;;16.30;67.50;;;;;;4879304;28;87450;-73
2023/04/12 15:47:58;;;;;;;3.15;0.65;;;16.20;67.70;;;;;;4883452;28;86624;-74
2023/04/12 15:50:24;;;;;;;6.15;0.65;;;16.20;68.30;;;;;;4878093;28;88360;-73
2023/04/12 15:52:52;;;;;;;3.42;0.60;;;16.10;68.40;;;;;;4890224;28;88182;-73